createdAt,value
2018-12-17T00:02:23.023Z,76.78
2018-12-17T00:04:50.630Z,77.03
2018-12-17T00:07:18.077Z,77.16
2018-12-17T00:09:45.669Z,77.24
2018-12-17T00:12:16.551Z,76.79
2018-12-17T00:14:42.863Z,77.73
2018-12-17T00:17:10.391Z,76.99
2018-12-17T00:19:37.972Z,77.74
2018-12-17T00:22:06.084Z,77.34
2018-12-17T00:24:33.727Z,77.62
2018-12-17T00:27:01.269Z,76.94
2018-12-17T00:29:28.774Z,77.34
2018-12-17T00:31:56.390Z,77.68
2018-12-17T00:34:23.923Z,77.42
2018-12-17T00:36:51.383Z,77.30
2018-12-17T00:39:18.841Z,78.01
2018-12-17T00:41:46.313Z,77.71
2018-12-17T00:44:13.793Z,77.13
2018-12-17T00:46:41.333Z,77.06
2018-12-17T00:49:08.825Z,77.75
2018-12-17T00:51:36.322Z,78.01
2018-12-17T00:54:03.883Z,77.57
2018-12-17T00:56:31.590Z,78.12
2018-12-17T00:58:59.143Z,77.35
2018-12-17T01:01:26.734Z,78.06
2018-12-17T01:03:54.230Z,77.44
2018-12-17T01:06:22.131Z,77.62
2018-12-17T01:08:49.679Z,78.07
2018-12-17T01:11:18.141Z,78.55
2018-12-17T01:13:45.622Z,78.75
2018-12-17T01:16:13.170Z,78.96
2018-12-17T01:18:40.649Z,79.10
2018-12-17T01:21:09.795Z,78.82
2018-12-17T01:23:37.270Z,79.67
2018-12-17T01:26:05.971Z,78.72
2018-12-17T01:28:33.890Z,79.33
2018-12-17T01:31:01.378Z,79.45
2018-12-17T01:33:30.260Z,79.27
2018-12-17T01:35:57.982Z,79.00
2018-12-17T01:38:25.450Z,78.98
2018-12-17T01:40:53.432Z,79.25
2018-12-17T01:43:20.905Z,78.71
2018-12-17T01:45:48.376Z,78.91
2018-12-17T01:48:15.874Z,78.63
2018-12-17T01:50:43.343Z,78.58
2018-12-17T01:53:10.897Z,79.05
2018-12-17T01:55:38.462Z,78.25
2018-12-17T01:58:05.983Z,78.69
2018-12-17T02:00:33.543Z,77.80
2018-12-17T02:03:01.086Z,78.51
2018-12-17T02:05:28.781Z,78.17
2018-12-17T02:07:56.291Z,78.39
2018-12-17T02:10:24.027Z,78.16
2018-12-17T02:12:51.483Z,77.77
2018-12-17T02:15:18.946Z,77.90
2018-12-17T02:17:46.407Z,77.54
2018-12-17T02:20:13.955Z,78.00
2018-12-17T02:22:41.562Z,77.41
2018-12-17T02:25:09.099Z,78.05
2018-12-17T02:27:36.567Z,77.45
2018-12-17T02:30:05.929Z,78.05
2018-12-17T02:41:10.907Z,78.06
2018-12-17T02:43:38.384Z,78.50
2018-12-17T02:46:05.855Z,78.30
2018-12-17T02:48:33.529Z,78.83
2018-12-17T02:51:01.010Z,78.76
2018-12-17T02:53:28.469Z,78.26
2018-12-17T02:55:56.081Z,78.50
2018-12-17T02:58:23.678Z,78.40
2018-12-17T03:00:51.184Z,78.05
2018-12-17T03:03:18.748Z,78.24
2018-12-17T03:05:46.250Z,78.45
2018-12-17T03:08:13.848Z,78.21
2018-12-17T03:10:41.399Z,78.45
2018-12-17T03:13:08.871Z,78.43
2018-12-17T03:15:36.324Z,78.71
2018-12-17T03:18:04.009Z,78.53
2018-12-17T03:20:31.681Z,78.95
2018-12-17T03:22:59.166Z,78.99
2018-12-17T03:25:26.708Z,78.38
2018-12-17T03:27:54.317Z,78.63
2018-12-17T03:30:21.808Z,79.08
2018-12-17T03:32:49.300Z,79.17
2018-12-17T03:35:16.758Z,78.56
2018-12-17T03:37:44.248Z,79.11
2018-12-17T03:40:11.860Z,78.65
2018-12-17T03:42:39.384Z,78.03
2018-12-17T03:45:07.063Z,78.59
2018-12-17T03:47:34.518Z,78.27
2018-12-17T03:50:01.985Z,78.75
2018-12-17T03:52:29.439Z,78.47
2018-12-17T03:54:57.009Z,78.24
2018-12-17T03:57:24.472Z,78.93
2018-12-17T03:59:52.069Z,78.12
2018-12-17T04:02:19.551Z,78.69
2018-12-17T04:04:47.682Z,77.93
2018-12-17T04:07:15.201Z,78.30
2018-12-17T04:09:42.735Z,78.08
2018-12-17T04:12:10.199Z,77.79
2018-12-17T04:14:37.655Z,78.38
2018-12-17T04:17:05.371Z,77.96
2018-12-17T04:19:32.850Z,77.77
2018-12-17T04:22:00.471Z,77.87
2018-12-17T04:24:28.372Z,77.66
2018-12-17T04:26:55.904Z,77.32
2018-12-17T04:29:23.459Z,77.37
2018-12-17T04:31:51.267Z,77.51
2018-12-17T04:34:18.814Z,77.86
2018-12-17T04:36:46.278Z,77.42
2018-12-17T04:39:14.037Z,77.02
2018-12-17T04:41:41.639Z,77.21
2018-12-17T04:44:09.179Z,77.76
2018-12-17T04:46:36.767Z,77.78
2018-12-17T04:49:04.332Z,77.09
2018-12-17T04:51:31.966Z,77.43
2018-12-17T04:54:02.719Z,77.13
2018-12-17T04:56:30.545Z,77.66
2018-12-17T04:58:58.025Z,76.60
2018-12-17T05:01:25.544Z,76.74
2018-12-17T05:03:52.997Z,77.33
2018-12-17T05:06:20.553Z,77.19
2018-12-17T05:08:48.879Z,76.67
2018-12-17T05:11:16.355Z,76.56
2018-12-17T05:13:43.792Z,77.24
2018-12-17T05:16:11.327Z,77.64
2018-12-17T05:18:38.788Z,76.66
2018-12-17T05:21:06.286Z,77.23
2018-12-17T05:23:33.805Z,76.82
2018-12-17T05:26:01.280Z,77.24
2018-12-17T05:28:28.746Z,77.34
2018-12-17T05:30:56.223Z,77.16
2018-12-17T05:33:23.955Z,77.02
2018-12-17T05:35:51.428Z,77.10
2018-12-17T05:38:18.872Z,76.80
2018-12-17T05:40:46.531Z,76.51
2018-12-17T05:43:14.107Z,76.96
2018-12-17T05:45:41.574Z,77.14
2018-12-17T05:48:09.044Z,77.70
2018-12-17T05:50:36.595Z,77.59
2018-12-17T05:53:04.275Z,78.38
2018-12-17T05:55:31.800Z,77.94
2018-12-17T05:57:59.399Z,77.44
2018-12-17T06:00:27.412Z,77.61
2018-12-17T06:02:54.972Z,77.94
2018-12-17T06:05:22.468Z,77.09
2018-12-17T06:07:50.048Z,77.61
2018-12-17T06:10:17.563Z,77.25
2018-12-17T06:12:45.035Z,77.79
2018-12-17T06:15:12.496Z,77.75
2018-12-17T06:17:40.281Z,78.08
2018-12-17T06:20:08.109Z,77.71
2018-12-17T06:22:35.721Z,77.26
2018-12-17T06:25:03.496Z,77.42
2018-12-17T06:27:36.760Z,77.52
2018-12-17T06:30:00.685Z,77.69
2018-12-17T06:32:28.180Z,77.33
2018-12-17T06:34:55.749Z,76.98
2018-12-17T06:37:29.259Z,77.79
2018-12-17T06:39:57.159Z,77.34
2018-12-17T06:42:24.700Z,77.21
2018-12-17T06:44:53.466Z,77.53
2018-12-17T06:47:21.000Z,77.95
2018-12-17T06:49:48.581Z,78.49
2018-12-17T06:52:16.122Z,79.08
2018-12-17T06:54:43.736Z,78.66
2018-12-17T06:57:11.292Z,77.77
2018-12-17T06:59:42.649Z,78.80
2018-12-17T07:02:08.787Z,78.22
2018-12-17T07:04:36.704Z,79.46
2018-12-17T07:07:04.214Z,78.35
2018-12-17T07:09:31.743Z,78.78
2018-12-17T07:11:59.271Z,78.43
2018-12-17T07:14:26.831Z,78.32
2018-12-17T07:16:54.392Z,78.25
2018-12-17T07:19:21.990Z,78.04
2018-12-17T07:21:49.710Z,77.46
2018-12-17T07:24:17.238Z,77.54
2018-12-17T07:26:44.720Z,77.40
2018-12-17T07:29:12.243Z,77.62
2018-12-17T07:31:39.835Z,77.66
2018-12-17T07:34:08.684Z,77.53
2018-12-17T07:36:40.771Z,77.05
2018-12-17T07:39:08.282Z,76.92
2018-12-17T07:41:36.431Z,76.93
2018-12-17T07:44:04.103Z,77.46
2018-12-17T07:46:32.252Z,77.78
2018-12-17T07:48:59.892Z,78.02
2018-12-17T07:51:27.451Z,78.91
2018-12-17T07:53:54.965Z,79.04
2018-12-17T07:56:22.461Z,78.18
2018-12-17T07:58:49.958Z,78.66
2018-12-17T08:01:17.719Z,79.33
2018-12-17T08:03:45.192Z,79.68
2018-12-17T08:06:12.667Z,79.44
2018-12-17T08:08:40.207Z,79.57
2018-12-17T08:11:07.674Z,79.43
2018-12-17T08:13:35.336Z,79.34
2018-12-17T08:16:02.961Z,79.12
2018-12-17T08:18:30.533Z,79.62
2018-12-17T08:20:58.232Z,79.24
2018-12-17T08:23:25.755Z,79.31
2018-12-17T08:25:53.219Z,78.20
2018-12-17T08:28:20.745Z,77.92
2018-12-17T08:30:48.282Z,77.54
2018-12-17T08:33:15.819Z,77.63
2018-12-17T08:35:43.339Z,78.56
2018-12-17T08:38:10.937Z,78.37
2018-12-17T08:40:38.608Z,78.59
2018-12-17T08:43:06.523Z,78.39
2018-12-17T08:45:34.091Z,78.83
2018-12-17T08:48:02.383Z,79.74
2018-12-17T08:50:29.946Z,78.98
2018-12-17T08:52:57.523Z,79.40
2018-12-17T08:55:25.133Z,78.61
2018-12-17T08:57:52.638Z,79.19
2018-12-17T09:00:20.095Z,78.36
2018-12-17T09:02:47.699Z,79.28
2018-12-17T09:05:16.019Z,78.62
2018-12-17T09:07:43.546Z,78.64
2018-12-17T09:10:11.024Z,78.75
2018-12-17T09:12:38.591Z,78.87
2018-12-17T09:15:06.431Z,77.91
2018-12-17T09:17:33.909Z,78.60
2018-12-17T09:20:02.534Z,77.79
2018-12-17T09:22:30.142Z,77.79
2018-12-17T09:24:57.797Z,78.52
2018-12-17T09:27:25.385Z,78.53
2018-12-17T09:29:52.871Z,78.34
2018-12-17T09:32:20.452Z,78.05
2018-12-17T09:34:47.952Z,77.48
2018-12-17T09:37:16.048Z,77.95
2018-12-17T09:39:43.572Z,77.84
2018-12-17T09:42:11.054Z,77.13
2018-12-17T09:44:38.607Z,77.93
2018-12-17T09:47:06.139Z,77.40
2018-12-17T09:49:33.651Z,77.17
2018-12-17T09:52:01.625Z,77.72
2018-12-17T09:54:29.097Z,77.33
2018-12-17T09:56:56.690Z,76.37
2018-12-17T09:59:24.214Z,76.63
2018-12-17T10:01:52.073Z,76.22
2018-12-17T10:04:19.540Z,77.07
2018-12-17T10:06:47.112Z,76.71
2018-12-17T10:09:14.706Z,76.54
2018-12-17T10:11:42.267Z,77.04
2018-12-17T10:14:10.018Z,76.99
2018-12-17T10:16:37.613Z,76.88
2018-12-17T10:19:05.113Z,76.10
2018-12-17T10:21:32.820Z,77.14
2018-12-17T10:24:00.280Z,76.06
2018-12-17T10:26:27.970Z,76.51
2018-12-17T10:28:55.479Z,75.95
2018-12-17T10:31:22.951Z,76.89
2018-12-17T10:33:50.423Z,76.30
2018-12-17T10:36:17.888Z,75.98
2018-12-17T10:38:45.515Z,76.72
2018-12-17T10:41:13.317Z,76.02
2018-12-17T10:43:40.825Z,76.84
2018-12-17T10:46:08.442Z,75.76
2018-12-17T10:48:35.949Z,75.38
2018-12-17T10:51:03.648Z,76.30
2018-12-17T10:53:31.128Z,75.64
2018-12-17T10:55:58.723Z,76.29
2018-12-17T10:58:26.408Z,75.96
2018-12-17T11:00:59.640Z,76.47
2018-12-17T11:03:29.232Z,75.88
2018-12-17T11:05:57.487Z,76.31
2018-12-17T11:08:24.961Z,76.30
2018-12-17T11:10:52.521Z,76.94
2018-12-17T11:13:20.041Z,76.93
2018-12-17T11:15:47.610Z,76.84
2018-12-17T11:18:15.133Z,76.64
2018-12-17T11:20:42.759Z,76.13
2018-12-17T11:23:10.209Z,76.44
2018-12-17T11:25:37.684Z,75.81
2018-12-17T11:28:05.207Z,75.68
2018-12-17T11:30:32.759Z,76.52
2018-12-17T11:33:00.415Z,75.57
2018-12-17T11:35:27.910Z,75.43
2018-12-17T11:37:55.460Z,75.53
2018-12-17T11:40:23.017Z,75.79
2018-12-17T11:42:50.556Z,76.07
2018-12-17T11:45:18.116Z,76.15
2018-12-17T11:47:45.652Z,76.07
2018-12-17T11:50:13.267Z,75.69
2018-12-17T11:52:40.896Z,75.84
2018-12-17T11:55:08.687Z,75.41
2018-12-17T12:00:32.042Z,75.22
2018-12-17T12:02:59.603Z,75.58
2018-12-17T12:05:27.166Z,75.48
2018-12-17T12:07:54.728Z,74.65
2018-12-17T12:10:22.244Z,74.49
2018-12-17T12:12:49.752Z,74.46
2018-12-17T12:15:17.477Z,75.20
2018-12-17T12:17:45.168Z,75.26
2018-12-17T12:20:12.936Z,74.71
2018-12-17T12:22:40.486Z,74.87
2018-12-17T12:25:08.128Z,74.94
2018-12-17T12:27:35.583Z,74.61
2018-12-17T12:30:04.722Z,74.43
2018-12-17T12:32:32.185Z,74.04
2018-12-17T12:34:59.751Z,73.87
2018-12-17T12:37:27.234Z,74.23
2018-12-17T12:39:54.712Z,73.87
2018-12-17T12:42:22.218Z,73.73
2018-12-17T12:44:49.770Z,73.96
2018-12-17T12:47:17.369Z,73.75
2018-12-17T12:49:44.852Z,74.44
2018-12-17T12:52:12.333Z,73.84
2018-12-17T12:54:40.123Z,73.83
2018-12-17T12:57:07.728Z,74.31
2018-12-17T12:59:35.169Z,73.44
2018-12-17T13:02:02.666Z,73.53
2018-12-17T13:04:30.415Z,73.72
2018-12-17T13:06:57.918Z,73.57
2018-12-17T13:09:25.421Z,74.46
2018-12-17T13:11:53.053Z,73.89
2018-12-17T13:14:20.566Z,73.94
2018-12-17T13:16:48.232Z,73.89
2018-12-17T13:19:15.728Z,74.56
2018-12-17T13:21:43.256Z,74.04
2018-12-17T13:24:10.799Z,74.34
2018-12-17T13:26:38.355Z,75.43
2018-12-17T13:29:06.014Z,75.05
2018-12-17T13:31:33.475Z,75.00
2018-12-17T13:34:00.979Z,74.50
2018-12-17T13:36:28.727Z,74.45
2018-12-17T13:38:56.457Z,74.35
2018-12-17T13:41:24.225Z,74.70
2018-12-17T13:43:51.716Z,73.97
2018-12-17T13:46:19.544Z,74.36
2018-12-17T13:48:47.224Z,74.88
2018-12-17T13:54:15.234Z,75.91
2018-12-17T13:56:42.762Z,75.85
2018-12-17T13:59:10.231Z,75.91
2018-12-17T14:01:37.746Z,76.68
2018-12-17T14:04:06.584Z,76.32
2018-12-17T14:06:34.207Z,77.05
2018-12-17T14:09:02.262Z,76.80
2018-12-17T14:11:31.272Z,76.97
2018-12-17T14:13:58.960Z,76.62
2018-12-17T14:16:28.764Z,76.97
2018-12-17T14:19:02.066Z,77.46
2018-12-17T14:21:35.166Z,77.00
2018-12-17T14:24:02.819Z,77.36
2018-12-17T14:26:30.447Z,77.70
2018-12-17T14:28:57.906Z,77.07
2018-12-17T14:31:28.870Z,77.70
2018-12-17T14:33:54.999Z,77.93
2018-12-17T14:36:22.498Z,76.94
2018-12-17T14:38:50.047Z,78.11
2018-12-17T14:41:17.510Z,77.97
2018-12-17T14:43:45.104Z,77.92
2018-12-17T14:46:13.499Z,77.89
2018-12-17T14:48:41.014Z,77.79
2018-12-17T14:51:08.705Z,78.08
2018-12-17T14:53:36.343Z,77.27
2018-12-17T14:56:03.955Z,78.33
2018-12-17T14:58:31.515Z,77.36
2018-12-17T15:00:59.055Z,77.29
2018-12-17T15:03:26.503Z,77.63
2018-12-17T15:05:54.091Z,77.84
2018-12-17T15:08:21.519Z,77.56
2018-12-17T15:10:49.199Z,77.34
2018-12-17T15:13:16.741Z,77.08
2018-12-17T15:15:44.886Z,77.24
2018-12-17T15:18:12.790Z,76.98
2018-12-17T15:20:40.490Z,77.54
2018-12-17T15:23:08.178Z,77.32
2018-12-17T15:25:35.690Z,78.12
2018-12-17T15:28:03.165Z,77.00
2018-12-17T15:30:30.799Z,77.24
2018-12-17T15:32:58.273Z,76.81
2018-12-17T15:35:26.255Z,77.15
2018-12-17T15:37:53.810Z,77.28
2018-12-17T15:40:21.594Z,76.90
2018-12-17T15:42:49.268Z,76.50
2018-12-17T15:45:16.902Z,76.90
2018-12-17T15:47:44.588Z,77.46
2018-12-17T15:50:12.113Z,77.17
2018-12-17T15:52:39.580Z,77.49
2018-12-17T15:55:07.161Z,77.16
2018-12-17T15:57:34.606Z,76.79
2018-12-17T16:00:02.148Z,76.96
2018-12-17T16:02:29.854Z,77.21
2018-12-17T16:04:57.737Z,77.51
2018-12-17T16:07:26.120Z,77.27
2018-12-17T16:09:55.707Z,76.63
2018-12-17T16:12:23.348Z,77.51
2018-12-17T16:14:50.846Z,77.35
2018-12-17T16:17:18.356Z,77.37
2018-12-17T16:19:46.399Z,77.43
2018-12-17T16:22:13.943Z,77.91
2018-12-17T16:24:42.149Z,77.81
2018-12-17T16:27:09.763Z,77.85
2018-12-17T16:29:37.288Z,77.05
2018-12-17T16:32:04.846Z,77.20
2018-12-17T16:34:32.420Z,77.24
2018-12-17T16:37:00.114Z,77.44
2018-12-17T16:39:28.116Z,77.82
2018-12-17T16:41:55.669Z,77.84
2018-12-17T16:44:23.272Z,77.85
2018-12-17T16:46:50.888Z,78.13
2018-12-17T16:49:18.480Z,77.19
2018-12-17T16:51:46.051Z,77.66
2018-12-17T16:54:13.551Z,77.30
2018-12-17T16:56:41.124Z,77.29
2018-12-17T16:59:08.748Z,77.57
2018-12-17T17:01:36.371Z,77.79
2018-12-17T17:04:04.077Z,77.42
2018-12-17T17:06:31.589Z,78.12
2018-12-17T17:08:59.229Z,77.73
2018-12-17T17:11:26.696Z,77.51
2018-12-17T17:13:54.161Z,77.60
2018-12-17T17:16:21.855Z,77.93
2018-12-17T17:18:49.343Z,78.79
2018-12-17T17:21:16.799Z,78.47
2018-12-17T17:23:44.355Z,78.36
2018-12-17T17:26:11.864Z,79.04
2018-12-17T17:28:39.570Z,78.56
2018-12-17T17:31:07.260Z,78.85
2018-12-17T17:33:35.436Z,79.10
2018-12-17T17:36:02.976Z,78.91
2018-12-17T17:38:30.507Z,78.95
2018-12-17T17:40:57.966Z,78.42
2018-12-17T17:43:25.598Z,78.83
2018-12-17T17:45:53.287Z,78.86
2018-12-17T17:48:20.764Z,79.11
2018-12-17T17:50:48.600Z,78.78
2018-12-17T17:53:16.219Z,78.61
2018-12-17T17:55:43.819Z,78.43
2018-12-17T17:58:11.348Z,78.81
2018-12-17T18:00:38.829Z,79.02
2018-12-17T18:03:16.405Z,78.28
2018-12-17T18:05:44.180Z,78.88
2018-12-17T18:08:12.816Z,78.55
2018-12-17T18:10:40.331Z,79.27
2018-12-17T18:13:07.785Z,79.21
2018-12-17T18:15:35.313Z,79.30
2018-12-17T18:18:02.817Z,79.04
2018-12-17T18:20:30.292Z,79.55
2018-12-17T18:22:57.791Z,79.07
2018-12-17T18:25:25.406Z,79.34
2018-12-17T18:27:52.917Z,79.29
2018-12-17T18:30:20.560Z,79.74
2018-12-17T18:32:48.239Z,79.70
2018-12-17T18:35:16.267Z,79.43
2018-12-17T18:37:43.725Z,79.18
2018-12-17T18:40:11.351Z,79.01
2018-12-17T18:42:38.796Z,79.46
2018-12-17T18:45:08.096Z,79.29
2018-12-17T18:47:35.894Z,79.80
2018-12-17T18:50:04.373Z,79.49
2018-12-17T18:52:31.874Z,80.00
2018-12-17T18:54:59.487Z,80.92
2018-12-17T18:57:27.097Z,80.90
2018-12-17T18:59:54.669Z,81.31
2018-12-17T19:02:22.292Z,81.92
2018-12-17T19:04:51.607Z,81.95
2018-12-17T19:07:19.056Z,81.49
2018-12-17T19:09:46.672Z,81.41
2018-12-17T19:12:14.185Z,81.23
2018-12-17T19:14:41.672Z,81.90
2018-12-17T19:17:09.410Z,81.57
2018-12-17T19:19:37.789Z,81.34
2018-12-17T19:22:05.279Z,81.15
2018-12-17T19:24:32.746Z,81.59
2018-12-17T19:27:00.859Z,81.43
2018-12-17T19:29:28.997Z,81.54
2018-12-17T19:31:57.373Z,81.59
2018-12-17T19:34:25.279Z,80.92
2018-12-17T19:36:52.808Z,81.78
2018-12-17T19:39:20.291Z,81.66
2018-12-17T19:41:47.760Z,81.11
2018-12-17T19:44:15.631Z,81.69
2018-12-17T19:46:43.130Z,81.42
2018-12-17T19:49:10.856Z,81.27
2018-12-17T19:51:38.382Z,81.44
2018-12-17T19:54:06.636Z,81.19
2018-12-17T19:56:36.808Z,81.00
2018-12-17T19:59:04.533Z,80.70
2018-12-17T20:01:32.103Z,80.88
2018-12-17T20:03:59.630Z,81.29
2018-12-17T20:06:27.123Z,81.54
2018-12-17T20:08:54.999Z,81.11
2018-12-17T20:11:22.650Z,81.47
2018-12-17T20:13:50.149Z,81.54
2018-12-17T20:16:17.793Z,81.47
2018-12-17T20:18:47.087Z,81.48
2018-12-17T20:21:14.747Z,81.44
2018-12-17T20:23:42.295Z,81.52
2018-12-17T20:26:10.642Z,81.70
2018-12-17T20:28:38.138Z,81.47
2018-12-17T20:31:06.021Z,81.63
2018-12-17T20:33:34.479Z,80.84
2018-12-17T20:36:02.153Z,81.06
2018-12-17T20:38:29.828Z,80.81
2018-12-17T20:40:57.409Z,81.21
2018-12-17T20:43:25.756Z,81.37
2018-12-17T20:45:53.297Z,81.20
2018-12-17T20:48:20.774Z,80.68
2018-12-17T20:50:48.232Z,80.54
2018-12-17T20:53:15.757Z,80.45
2018-12-17T20:55:43.248Z,81.34
2018-12-17T20:58:10.968Z,81.42
2018-12-17T21:00:38.625Z,80.97
2018-12-17T21:03:06.162Z,81.20
2018-12-17T21:05:33.947Z,81.26
2018-12-17T21:08:01.443Z,80.73
2018-12-17T21:10:28.901Z,81.10
2018-12-17T21:12:56.380Z,80.81
2018-12-17T21:15:23.860Z,81.24
2018-12-17T21:17:51.672Z,80.87
2018-12-17T21:20:19.330Z,80.84
2018-12-17T21:22:47.706Z,80.50
2018-12-17T21:25:15.275Z,81.12
2018-12-17T21:27:43.136Z,81.01
2018-12-17T21:30:11.548Z,80.87
2018-12-17T21:32:39.021Z,80.56
2018-12-17T21:35:06.873Z,81.40
2018-12-17T21:37:34.494Z,81.65
2018-12-17T21:42:57.793Z,81.40
2018-12-17T21:45:25.363Z,80.88
2018-12-17T21:47:53.004Z,81.63
2018-12-17T21:50:20.590Z,81.51
2018-12-17T21:52:48.221Z,81.13
2018-12-17T21:55:16.599Z,81.22
2018-12-17T21:57:44.147Z,81.01
2018-12-17T22:00:11.805Z,81.55
2018-12-17T22:02:39.274Z,81.91
2018-12-17T22:05:06.956Z,81.81
2018-12-17T22:07:34.538Z,81.86
2018-12-17T22:10:02.007Z,81.35
2018-12-17T22:12:29.612Z,81.64
2018-12-17T22:14:57.285Z,81.81
2018-12-17T22:17:24.794Z,82.07
2018-12-17T22:19:52.409Z,81.56
2018-12-17T22:22:19.884Z,81.87
2018-12-17T22:24:47.383Z,81.54
2018-12-17T22:27:14.860Z,81.97
2018-12-17T22:29:42.329Z,81.81
2018-12-17T22:32:09.948Z,82.03
2018-12-17T22:34:37.387Z,82.67
2018-12-17T22:37:04.908Z,82.44
2018-12-17T22:39:32.482Z,82.38
2018-12-17T22:42:00.002Z,82.84
2018-12-17T22:44:27.523Z,82.93
2018-12-17T22:46:55.143Z,82.49
2018-12-17T22:49:22.649Z,82.36
2018-12-17T22:51:50.151Z,82.72
2018-12-17T22:54:17.590Z,82.88
2018-12-17T22:56:45.066Z,83.03
2018-12-17T22:59:12.537Z,83.30
2018-12-17T23:01:40.180Z,83.29
2018-12-17T23:04:07.760Z,83.32
2018-12-17T23:06:35.388Z,83.80
2018-12-17T23:09:05.219Z,83.12
2018-12-17T23:11:50.306Z,83.48
2018-12-17T23:14:29.741Z,83.66
2018-12-17T23:17:09.165Z,83.20
2018-12-17T23:19:41.368Z,83.83
2018-12-17T23:22:09.967Z,83.72
2018-12-17T23:24:38.101Z,83.82
2018-12-17T23:27:09.161Z,83.10
2018-12-17T23:29:38.153Z,83.12
2018-12-17T23:32:06.074Z,83.59
2018-12-17T23:34:34.191Z,83.35
2018-12-17T23:37:02.472Z,83.21
2018-12-17T23:39:31.023Z,83.42
2018-12-17T23:41:58.643Z,83.09
2018-12-17T23:44:26.121Z,83.27
2018-12-17T23:46:53.634Z,83.05
2018-12-17T23:49:21.605Z,83.19
2018-12-17T23:51:50.602Z,83.47
2018-12-17T23:54:18.146Z,83.02
2018-12-17T23:56:45.718Z,82.72
2018-12-17T23:59:13.421Z,83.11
